Airport details for: LHPP (Hungary)

Metar

LHPP 151645Z 06018KT 9999 -RA SCT016 OVC083 04/02 Q1001

General details

ICAO: LHPP
IATA: PEV
Name (city): Pogany
Major:
Country: Hungary
vACC: vACC Hungary
Description:

Pécs Pogány Airport is one of the five international airport in Hungary,  located 9 km from Pécs town. Pécs is the fifth largest city of Hungary, located on the slopes of the Mecsek mountains in the south-west of the country, close to its border with Croatia. The city has been selected to be the European Capital of Culture in 2010 sharing the title together with Essen and Istanbul. The airport has only one asphalt runway, RWY16 is equipped with CAT I. ILS.

Scenery links:
FS9 scenery: Download
FSX/P3D scenery: Download
XP scenery: Download
Elevation: 651 ft.
Transition altitude: 9000 ft.
MSA: 4900 ft.
Latitude: 45.989167
Longitude: 18.242222
LHPP Charts
LHPP Notams
LHPP Online stations

Runways

Number Course Length Elevation Lat Lon ILS ILS freq ILS FAC GP
16 155° 4921ft / 1500 m 651ft 45.99545 18.238422 - - 3.0°
34 335° 4921ft / 1500 m 640ft 45.982984 18.245819 108.35 335° 3.0°